createdAt,value
2023-01-05T00:00:16.798Z,1010.022747
2023-01-05T00:05:16.418Z,1010.073109
2023-01-05T00:10:19.106Z,1010.051519
2023-01-05T00:15:18.942Z,1010.136865
2023-01-05T00:20:16.615Z,1010.150208
2023-01-05T00:25:16.569Z,1010.098599
2023-01-05T00:30:16.594Z,1010.020898
2023-01-05T00:35:16.547Z,1010.066667
2023-01-05T00:40:16.588Z,1010.050475
2023-01-05T00:45:16.757Z,1010.140025
2023-01-05T00:50:16.744Z,1010.107585
2023-01-05T00:55:16.538Z,1010.021773
2023-01-05T01:00:16.633Z,1010.021926
2023-01-05T01:05:18.927Z,1009.999547
2023-01-05T01:10:18.921Z,1010.000467
2023-01-05T01:15:19.151Z,1010.105684
2023-01-05T01:20:18.874Z,1010.129653
2023-01-05T01:25:18.880Z,1010.128889
2023-01-05T01:30:18.935Z,1010.206670
2023-01-05T01:35:19.057Z,1010.204896
2023-01-05T01:40:16.449Z,1010.228115
2023-01-05T01:45:16.596Z,1010.197100
2023-01-05T01:50:16.512Z,1010.134409
2023-01-05T01:55:18.881Z,1010.099765
2023-01-05T02:00:18.952Z,1010.010920
2023-01-05T02:05:18.929Z,1009.977039
2023-01-05T02:10:18.863Z,1009.996359
2023-01-05T02:15:18.957Z,1010.053981
2023-01-05T02:20:18.956Z,1010.012900
2023-01-05T02:25:19.307Z,1009.936410
2023-01-05T02:30:18.939Z,1009.997849
2023-01-05T02:35:18.894Z,1009.927367
2023-01-05T02:40:19.048Z,1009.958456
2023-01-05T02:45:16.469Z,1009.846790
2023-01-05T02:50:16.462Z,1009.796857
2023-01-05T02:55:16.539Z,1009.740904
2023-01-05T03:00:18.845Z,1009.750569
2023-01-05T03:05:18.942Z,1009.760697
2023-01-05T03:10:16.377Z,1009.829830
2023-01-05T03:15:16.508Z,1009.887441
2023-01-05T03:20:16.516Z,1009.894642
2023-01-05T03:25:16.576Z,1009.829661
2023-01-05T03:30:16.473Z,1009.834151
2023-01-05T03:35:16.602Z,1009.871598
2023-01-05T03:40:16.676Z,1009.944454
2023-01-05T03:45:16.557Z,1009.959623
2023-01-05T03:50:16.445Z,1010.049503
2023-01-05T03:55:16.921Z,1010.142693
2023-01-05T04:00:16.611Z,1010.182672
2023-01-05T04:05:16.527Z,1010.208924
2023-01-05T04:10:16.395Z,1010.308632
2023-01-05T04:15:16.426Z,1010.256009
2023-01-05T04:20:16.512Z,1010.316656
2023-01-05T04:25:16.645Z,1010.395693
2023-01-05T04:30:16.364Z,1010.376962
2023-01-05T04:35:16.501Z,1010.542765
2023-01-05T04:40:16.381Z,1010.538842
2023-01-05T04:45:16.479Z,1010.489895
2023-01-05T04:50:16.619Z,1010.541365
2023-01-05T04:55:17.731Z,1010.622155
2023-01-05T05:00:16.425Z,1010.699175
2023-01-05T05:05:16.435Z,1010.842196
2023-01-05T05:10:16.564Z,1010.950145
2023-01-05T05:15:16.420Z,1010.955609
2023-01-05T05:20:16.627Z,1010.919070
2023-01-05T05:25:16.852Z,1010.934889
2023-01-05T05:30:16.813Z,1010.958814
2023-01-05T05:35:16.418Z,1010.980559
2023-01-05T05:40:16.326Z,1011.025024
2023-01-05T05:45:16.382Z,1010.984011
2023-01-05T05:50:16.438Z,1010.958424
2023-01-05T05:55:16.603Z,1011.007739
2023-01-05T06:00:16.753Z,1011.052656
2023-01-05T06:05:16.427Z,1011.113759
2023-01-05T06:10:16.685Z,1011.170029
2023-01-05T06:15:16.385Z,1011.249271
2023-01-05T06:20:16.333Z,1011.287992
2023-01-05T06:25:16.494Z,1011.284353
2023-01-05T06:35:18.875Z,1011.365987
2023-01-05T06:40:18.857Z,1011.425823
2023-01-05T06:45:19.349Z,1011.457854
2023-01-05T06:50:18.865Z,1011.550725
2023-01-05T06:55:18.885Z,1011.579289
2023-01-05T07:00:18.939Z,1011.645207
2023-01-05T07:05:18.853Z,1011.711638
2023-01-05T07:10:19.089Z,1011.788054
2023-01-05T07:15:18.860Z,1011.816692
2023-01-05T07:20:18.992Z,1011.963030
2023-01-05T07:25:19.052Z,1011.990227
2023-01-05T07:30:19.262Z,1012.091985
2023-01-05T07:35:18.898Z,1012.203313
2023-01-05T07:40:19.053Z,1012.249041
2023-01-05T07:45:19.111Z,1012.318938
2023-01-05T07:50:18.853Z,1012.375285
2023-01-05T07:55:16.693Z,1012.450285
2023-01-05T08:00:16.612Z,1012.472926
2023-01-05T08:05:16.402Z,1012.631180
2023-01-05T08:10:16.323Z,1012.664848
2023-01-05T08:15:16.352Z,1012.842270
2023-01-05T08:20:16.337Z,1012.823962
2023-01-05T08:25:16.406Z,1012.935911
2023-01-05T08:30:16.257Z,1013.075388
2023-01-05T08:35:18.919Z,1013.129687
2023-01-05T08:40:18.805Z,1013.132042
2023-01-05T08:45:18.789Z,1013.150164
2023-01-05T08:50:19.003Z,1013.104627
2023-01-05T08:55:18.877Z,1013.115551
2023-01-05T09:00:18.709Z,1013.252334
2023-01-05T09:05:18.955Z,1013.232137
2023-01-05T09:10:18.846Z,1013.272666
2023-01-05T09:15:18.913Z,1013.349147
2023-01-05T09:20:19.056Z,1013.483419
2023-01-05T09:25:18.994Z,1013.520086
2023-01-05T09:30:18.768Z,1013.563992
2023-01-05T09:35:18.848Z,1013.590717
2023-01-05T09:40:19.439Z,1013.616219
2023-01-05T09:45:19.078Z,1013.616314
2023-01-05T09:50:19.018Z,1013.726918
2023-01-05T09:55:18.754Z,1013.788673
2023-01-05T10:00:19.134Z,1013.850831
2023-01-05T10:05:19.203Z,1013.842682
2023-01-05T10:10:18.718Z,1013.833046
2023-01-05T10:15:18.743Z,1013.869736
2023-01-05T10:20:18.820Z,1013.848063
2023-01-05T10:25:19.152Z,1013.844817
2023-01-05T10:30:19.039Z,1013.860975
2023-01-05T10:35:42.037Z,1013.844293
2023-01-05T10:40:16.225Z,1013.902524
2023-01-05T10:45:16.330Z,1013.938216
2023-01-05T10:50:16.279Z,1013.952006
2023-01-05T10:55:16.278Z,1014.035546
2023-01-05T11:00:16.499Z,1014.077887
2023-01-05T11:05:16.586Z,1014.037209
2023-01-05T11:10:16.241Z,1014.086788
2023-01-05T11:15:18.715Z,1014.162561
2023-01-05T11:20:18.799Z,1014.161712
2023-01-05T11:25:18.799Z,1014.212944
2023-01-05T11:30:18.689Z,1014.225090
2023-01-05T11:35:18.833Z,1014.232433
2023-01-05T11:40:16.283Z,1014.225444
2023-01-05T11:45:16.385Z,1014.248389
2023-01-05T11:50:16.339Z,1014.229005
2023-01-05T11:55:16.337Z,1014.309838
2023-01-05T12:00:16.338Z,1014.280260
2023-01-05T12:05:16.394Z,1014.333063
2023-01-05T12:10:16.282Z,1014.361282
2023-01-05T12:15:16.267Z,1014.342400
2023-01-05T12:20:18.841Z,1014.455885
2023-01-05T12:25:18.871Z,1014.502922
2023-01-05T12:33:44.438Z,1014.508855
2023-01-05T12:35:18.961Z,1014.593287
2023-01-05T12:40:18.905Z,1014.643943
2023-01-05T12:45:18.729Z,1014.657530
2023-01-05T12:50:18.730Z,1014.784884
2023-01-05T12:55:18.975Z,1014.824539
2023-01-05T13:00:18.864Z,1014.879103
2023-01-05T13:05:18.759Z,1014.835070
2023-01-05T13:10:18.722Z,1014.864368
2023-01-05T13:15:18.766Z,1014.881723
2023-01-05T13:20:18.646Z,1014.885968
2023-01-05T13:25:18.749Z,1014.962994
2023-01-05T13:30:18.759Z,1015.008247
2023-01-05T13:35:18.678Z,1015.085063
2023-01-05T13:40:18.753Z,1015.144502
2023-01-05T13:45:18.778Z,1015.244475
2023-01-05T13:50:18.779Z,1015.381379
2023-01-05T13:55:25.860Z,1015.397258
2023-01-05T14:00:18.799Z,1015.567028
2023-01-05T14:05:18.772Z,1015.696640
2023-01-05T14:10:18.740Z,1015.778138
2023-01-05T14:15:18.866Z,1015.862864
2023-01-05T14:20:18.695Z,1015.939921
2023-01-05T14:25:18.807Z,1016.038763
2023-01-05T14:30:18.933Z,1016.163542
2023-01-05T14:35:18.821Z,1016.267542
2023-01-05T14:40:18.709Z,1016.276074
2023-01-05T14:45:18.860Z,1016.427966
2023-01-05T14:50:18.716Z,1016.464396
2023-01-05T14:55:27.069Z,1016.521795
2023-01-05T15:00:18.991Z,1016.532740
2023-01-05T15:05:18.814Z,1016.661805
2023-01-05T15:10:18.635Z,1016.821810
2023-01-05T15:15:18.786Z,1016.892548
2023-01-05T15:20:18.653Z,1017.024487
2023-01-05T15:25:18.739Z,1017.216650
2023-01-05T15:30:19.929Z,1017.187263
2023-01-05T15:35:18.977Z,1017.242931
2023-01-05T15:40:19.108Z,1017.380134
2023-01-05T15:45:18.708Z,1017.420477
2023-01-05T15:50:18.695Z,1017.526515
2023-01-05T15:55:18.616Z,1017.666850
2023-01-05T16:00:18.692Z,1017.639391
2023-01-05T16:05:19.084Z,1017.728226
2023-01-05T16:10:18.619Z,1017.834481
2023-01-05T16:15:18.577Z,1017.947079
2023-01-05T16:20:16.138Z,1018.029863
2023-01-05T16:25:16.281Z,1018.109821
2023-01-05T16:30:16.505Z,1018.168449
2023-01-05T16:35:18.634Z,1018.207508
2023-01-05T16:40:18.690Z,1018.168105
2023-01-05T16:45:18.922Z,1018.327057
2023-01-05T16:50:18.547Z,1018.386168
2023-01-05T16:55:23.710Z,1018.493476
2023-01-05T17:00:18.670Z,1018.594979
2023-01-05T17:05:18.934Z,1018.631477
2023-01-05T17:10:18.583Z,1018.663871
2023-01-05T17:15:18.876Z,1018.692643
2023-01-05T17:20:18.662Z,1018.750053
2023-01-05T17:25:18.873Z,1018.755249
2023-01-05T17:30:18.565Z,1018.745514
2023-01-05T17:35:20.026Z,1018.869587
2023-01-05T17:40:18.732Z,1018.915648
2023-01-05T17:45:18.755Z,1018.952149
2023-01-05T17:50:18.564Z,1018.959254
2023-01-05T17:55:19.761Z,1018.985809
2023-01-05T18:00:21.814Z,1018.942939
2023-01-05T18:05:19.128Z,1019.001657
2023-01-05T18:10:18.683Z,1019.101064
2023-01-05T18:15:18.786Z,1019.157075
2023-01-05T18:20:21.216Z,1019.203352
2023-01-05T18:25:19.092Z,1019.240460
2023-01-05T18:30:18.530Z,1019.290924
2023-01-05T18:35:18.771Z,1019.353614
2023-01-05T18:40:18.781Z,1019.425688
2023-01-05T18:45:31.927Z,1019.517542
2023-01-05T18:50:18.921Z,1019.546530
2023-01-05T18:55:18.653Z,1019.565784
2023-01-05T19:00:18.621Z,1019.619925
2023-01-05T19:05:18.697Z,1019.654111
2023-01-05T19:10:18.939Z,1019.631235
2023-01-05T19:15:18.694Z,1019.633551
2023-01-05T19:20:18.526Z,1019.671845
2023-01-05T19:25:18.546Z,1019.682066
2023-01-05T19:30:18.600Z,1019.746644
2023-01-05T19:35:18.733Z,1019.737046
2023-01-05T19:40:18.592Z,1019.733174
2023-01-05T19:45:18.570Z,1019.811422
2023-01-05T19:50:18.481Z,1019.864691
2023-01-05T19:55:18.633Z,1019.884824
2023-01-05T20:00:18.653Z,1019.930151
2023-01-05T20:05:18.634Z,1019.952112
2023-01-05T20:10:18.524Z,1019.894236
2023-01-05T20:15:18.637Z,1019.945467
2023-01-05T20:20:18.509Z,1020.061743
2023-01-05T20:25:18.581Z,1020.049760
2023-01-05T20:30:18.576Z,1020.098676
2023-01-05T20:35:18.518Z,1020.160701
2023-01-05T20:40:18.558Z,1020.209477
2023-01-05T20:45:18.534Z,1020.192682
2023-01-05T20:50:18.539Z,1020.288058
2023-01-05T20:55:19.278Z,1020.306722
2023-01-05T21:00:18.851Z,1020.301487
2023-01-05T21:05:18.592Z,1020.325036
2023-01-05T21:10:18.546Z,1020.427298
2023-01-05T21:15:18.731Z,1020.469432
2023-01-05T21:20:18.895Z,1020.557318
2023-01-05T21:25:18.681Z,1020.597836
2023-01-05T21:30:18.548Z,1020.657083
2023-01-05T21:35:18.651Z,1020.681576
2023-01-05T21:40:18.624Z,1020.678694
2023-01-05T21:45:18.818Z,1020.636912
2023-01-05T21:50:18.943Z,1020.698865
2023-01-05T21:55:18.486Z,1020.667344
2023-01-05T22:00:18.509Z,1020.599805
2023-01-05T22:05:16.138Z,1020.614534
2023-01-05T22:10:16.172Z,1020.633696
2023-01-05T22:15:16.090Z,1020.669769
2023-01-05T22:20:16.343Z,1020.656953
2023-01-05T22:25:16.167Z,1020.680099
2023-01-05T22:30:16.263Z,1020.620059
2023-01-05T22:35:18.484Z,1020.648766
2023-01-05T22:40:18.820Z,1020.594503
2023-01-05T22:45:18.750Z,1020.606206
2023-01-05T22:50:18.717Z,1020.598443
2023-01-05T22:55:18.536Z,1020.654251
2023-01-05T23:00:19.575Z,1020.607029
2023-01-05T23:05:18.735Z,1020.632600
2023-01-05T23:10:18.497Z,1020.623936
2023-01-05T23:15:18.446Z,1020.650223
2023-01-05T23:20:18.946Z,1020.676864
2023-01-05T23:25:18.581Z,1020.661163
2023-01-05T23:30:18.509Z,1020.699506
2023-01-05T23:35:18.469Z,1020.702564
2023-01-05T23:40:18.672Z,1020.689773
2023-01-05T23:45:18.571Z,1020.727234
2023-01-05T23:50:18.510Z,1020.734614
2023-01-05T23:55:18.577Z,1020.711562
